createdAt,value
2023-04-14T00:01:53.661Z,2.2
2023-04-14T00:03:53.631Z,2.3
2023-04-14T00:08:15.825Z,3.3
2023-04-14T00:18:18.849Z,2.3
2023-04-14T00:20:18.718Z,2.5
2023-04-14T00:22:18.662Z,2.3
2023-04-14T00:30:21.828Z,3.1
2023-04-14T00:36:21.564Z,2.9
2023-04-14T00:42:24.787Z,2.9
2023-04-14T00:44:24.677Z,2.3
2023-04-14T00:48:24.499Z,3.1
2023-04-14T00:52:24.334Z,2.6
2023-04-14T00:54:27.718Z,3.2
2023-04-14T00:56:27.648Z,2.5
2023-04-14T00:58:27.556Z,3.1
2023-04-14T00:59:29.282Z,3.5
2023-04-14T01:01:29.253Z,2.7
2023-04-14T01:03:29.335Z,2.8
2023-04-14T01:05:29.094Z,2.9
2023-04-14T01:07:32.471Z,2.7
2023-04-14T01:09:32.356Z,2.2
2023-04-14T01:11:32.282Z,3
2023-04-14T01:13:32.177Z,1.9
2023-04-14T01:15:32.166Z,2
2023-04-14T01:17:32.128Z,2.4
2023-04-14T01:19:31.964Z,2
2023-04-14T01:23:35.301Z,2.2
2023-04-14T01:25:35.213Z,2.8
2023-04-14T01:27:35.137Z,2.8
2023-04-14T01:31:34.971Z,2.3
2023-04-14T01:37:38.201Z,2.6
2023-04-14T01:43:37.936Z,3
2023-04-14T01:45:37.912Z,3
2023-04-14T01:54:42.759Z,3.8
2023-04-14T01:56:42.683Z,3
2023-04-14T01:58:42.595Z,3.3
2023-04-14T02:02:46.272Z,3.6
2023-04-14T02:06:45.795Z,3.5
2023-04-14T02:08:45.707Z,3.3
2023-04-14T02:12:45.585Z,3.1
2023-04-14T02:14:45.515Z,3.3
2023-04-14T02:20:48.775Z,3.9
2023-04-14T02:30:51.903Z,6.1
2023-04-14T02:32:51.848Z,7.1
2023-04-14T02:40:51.519Z,6.4
2023-04-14T02:42:51.438Z,8
2023-04-14T02:48:54.717Z,6.8
2023-04-14T02:49:56.403Z,8.1
2023-04-14T02:53:56.281Z,6.1
2023-04-14T03:01:59.630Z,5.6
2023-04-14T03:04:01.008Z,4.6
2023-04-14T03:06:00.893Z,4.8
2023-04-14T03:08:00.814Z,4.9
2023-04-14T03:20:03.842Z,4.1
2023-04-14T03:22:03.788Z,5
2023-04-14T03:26:07.137Z,5.3
2023-04-14T03:30:06.964Z,4.5
2023-04-14T03:32:06.937Z,4.2
2023-04-14T03:38:06.644Z,4.3
2023-04-14T03:40:10.088Z,3.8
2023-04-14T03:44:09.885Z,4
2023-04-14T03:48:37.888Z,3.5
2023-04-14T03:50:37.801Z,3.7
2023-04-14T03:52:41.221Z,3.6
2023-04-14T03:54:41.121Z,3.8
2023-04-14T03:56:41.057Z,3.2
2023-04-14T04:02:40.964Z,3.5
2023-04-14T04:04:40.938Z,2.7
2023-04-14T04:06:44.147Z,3.8
2023-04-14T04:08:44.076Z,3.6
2023-04-14T04:10:43.999Z,3
2023-04-14T04:12:43.935Z,2.7
2023-04-14T04:16:43.826Z,3.3
2023-04-14T04:18:43.676Z,3.5
2023-04-14T04:20:47.145Z,3.9
2023-04-14T04:22:47.041Z,3.7
2023-04-14T04:24:46.951Z,4.3
2023-04-14T04:26:46.872Z,3.6
2023-04-14T04:28:46.824Z,3.7
2023-04-14T04:30:46.719Z,3.6
2023-04-14T04:32:46.717Z,3.8
2023-04-14T04:34:50.051Z,4.8
2023-04-14T04:36:49.978Z,4.1
2023-04-14T04:39:51.583Z,5
2023-04-14T04:41:51.506Z,4.4
2023-04-14T04:45:51.386Z,5
2023-04-14T04:47:54.838Z,4.7
2023-04-14T04:49:54.773Z,4.8
2023-04-14T05:11:57.412Z,4.8
2023-04-14T05:13:57.309Z,4.6
2023-04-14T05:16:00.759Z,5.5
2023-04-14T05:18:00.739Z,5.1
2023-04-14T05:22:00.529Z,5.5
2023-04-14T05:24:00.490Z,4.7
2023-04-14T05:26:16.305Z,5.8
2023-04-14T05:28:00.305Z,6.8
2023-04-14T05:30:03.749Z,6.9
2023-04-14T05:32:03.650Z,6.5
2023-04-14T05:34:03.808Z,6.4
2023-04-14T05:35:05.290Z,6.7
2023-04-14T05:43:08.450Z,7.1
2023-04-14T05:49:08.244Z,7.2
2023-04-14T05:51:08.141Z,7.7
2023-04-14T05:53:08.072Z,8.6
2023-04-14T05:55:08.017Z,7.9
2023-04-14T05:57:11.388Z,11.3
2023-04-14T05:59:11.334Z,8.6
2023-04-14T06:03:11.491Z,8.3
2023-04-14T06:05:11.718Z,7.9
2023-04-14T06:07:10.979Z,9
2023-04-14T06:09:10.957Z,8.9
2023-04-14T06:23:13.986Z,8.4
2023-04-14T06:25:17.302Z,10.5
2023-04-14T06:27:17.235Z,9.8
2023-04-14T06:29:17.198Z,9
2023-04-14T06:30:18.896Z,11.4
2023-04-14T06:40:21.945Z,8.2
2023-04-14T06:46:21.727Z,9.8
2023-04-14T06:48:21.586Z,10.7
2023-04-14T06:50:21.517Z,13.7
2023-04-14T06:52:24.897Z,17.4
2023-04-14T06:54:24.778Z,15.8
2023-04-14T07:10:26.614Z,5.2
2023-04-14T07:12:26.347Z,5.3
2023-04-14T07:16:25.900Z,4.7
2023-04-14T07:18:25.560Z,4.2
2023-04-14T07:20:28.706Z,5.4
2023-04-14T07:22:28.418Z,4.4
2023-04-14T07:28:49.632Z,4.3
2023-04-14T07:30:49.324Z,3.4
2023-04-14T07:32:52.464Z,4
2023-04-14T07:34:52.078Z,3.7
2023-04-14T07:36:51.802Z,3.4
2023-04-14T07:38:51.463Z,4.2
2023-04-14T07:40:51.088Z,3.3
2023-04-14T07:42:50.751Z,3.5
2023-04-14T07:44:50.375Z,3.2
2023-04-14T07:46:53.430Z,3.1
2023-04-14T07:48:53.019Z,4
2023-04-14T07:50:52.630Z,3.5
2023-04-14T07:52:52.191Z,3.2
2023-04-14T07:54:51.742Z,3.2
2023-04-14T07:56:51.308Z,3.5
2023-04-14T07:58:50.868Z,3.2
2023-04-14T08:00:53.772Z,3.1
2023-04-14T08:02:53.424Z,3.2
2023-04-14T08:04:52.813Z,2.8
2023-04-14T08:08:51.689Z,2.9
2023-04-14T08:12:50.482Z,3.8
2023-04-14T08:14:53.287Z,3
2023-04-14T08:19:53.504Z,3.6
2023-04-14T08:21:52.929Z,3
2023-04-14T08:23:52.357Z,3.6
2023-04-14T08:27:54.268Z,3.4
2023-04-14T08:43:51.816Z,2.6
2023-04-14T08:47:50.423Z,2.2
2023-04-14T08:51:50.314Z,2.1
2023-04-14T08:53:49.588Z,1.9
2023-04-14T08:55:52.172Z,2.5
2023-04-14T08:57:51.439Z,2.4
2023-04-14T09:09:50.563Z,1.8
2023-04-14T09:14:50.544Z,2.5
2023-04-14T09:16:49.883Z,2.1
2023-04-14T09:18:49.955Z,2.1
2023-04-14T09:20:48.413Z,2.6
2023-04-14T09:22:51.051Z,1.5
2023-04-14T09:24:50.306Z,1.3
2023-04-14T09:26:49.569Z,1.3
2023-04-14T09:30:48.146Z,1.8
2023-04-14T09:32:47.399Z,2
2023-04-14T09:34:46.628Z,1.5
2023-04-14T09:36:49.196Z,1.7
2023-04-14T09:38:48.453Z,1.6
2023-04-14T09:40:47.702Z,1.8
2023-04-14T09:42:46.945Z,1.9
2023-04-14T09:46:45.406Z,1.7
2023-04-14T09:48:44.566Z,1.3
2023-04-14T09:50:47.122Z,1.5
2023-04-14T09:52:46.375Z,2.2
2023-04-14T09:54:45.551Z,2.1
2023-04-14T09:56:44.795Z,2.8
2023-04-14T09:58:44.005Z,1.7
2023-04-14T10:00:43.208Z,1.5
2023-04-14T10:09:44.643Z,1.8
2023-04-14T10:11:43.821Z,1.6
2023-04-14T10:23:42.269Z,1.8
2023-04-14T10:25:41.435Z,1.7
2023-04-14T10:27:40.566Z,2.3
2023-04-14T10:29:39.746Z,1.8
2023-04-14T10:33:41.448Z,1.4
2023-04-14T10:35:40.606Z,1.8
2023-04-14T10:41:38.076Z,1.9
2023-04-14T10:43:37.221Z,1.8
2023-04-14T10:45:39.722Z,1.3
2023-04-14T10:47:38.892Z,1.7
2023-04-14T10:49:37.999Z,1.8
2023-04-14T10:51:37.170Z,1.5
2023-04-14T10:53:36.299Z,2.5
2023-04-14T10:55:40.132Z,1.9
2023-04-14T11:01:36.357Z,2
2023-04-14T11:03:35.749Z,1.3
2023-04-14T11:05:56.410Z,1.6
2023-04-14T11:07:55.578Z,1.8
2023-04-14T11:09:54.745Z,1.3
2023-04-14T11:11:57.280Z,1.6
2023-04-14T11:13:56.416Z,1.4
2023-04-14T11:15:55.591Z,1.6
2023-04-14T11:17:54.785Z,1.9
2023-04-14T11:19:53.907Z,1.4
2023-04-14T11:21:53.056Z,1.1
2023-04-14T11:23:52.217Z,1.7
2023-04-14T11:25:54.696Z,1.9
2023-04-14T11:27:53.838Z,1.4
2023-04-14T11:29:52.995Z,1.7
2023-04-14T11:31:52.156Z,1.8
2023-04-14T11:33:51.227Z,1.8
2023-04-14T11:35:50.386Z,1.5
2023-04-14T11:37:49.520Z,1.7
2023-04-14T11:39:52.011Z,1.7
2023-04-14T11:41:51.116Z,2
2023-04-14T11:43:50.253Z,2.7
2023-04-14T11:47:48.507Z,2
2023-04-14T11:49:47.580Z,2.1
2023-04-14T11:51:46.719Z,1
2023-04-14T11:55:48.310Z,1.4
2023-04-14T11:57:47.382Z,1.8
2023-04-14T11:58:48.600Z,1.6
2023-04-14T12:06:48.388Z,1.3
2023-04-14T12:08:47.496Z,2
2023-04-14T12:10:46.640Z,2
2023-04-14T12:14:44.934Z,2
2023-04-14T12:16:44.098Z,2.4
2023-04-14T12:18:43.244Z,1.8
2023-04-14T12:26:43.188Z,1.8
2023-04-14T12:28:42.458Z,1.2
2023-04-14T12:30:41.484Z,1.8
2023-04-14T12:32:40.803Z,2.8
2023-04-14T12:34:43.195Z,2.3
2023-04-14T12:36:50.199Z,1.4
2023-04-14T12:38:41.488Z,1.6
2023-04-14T12:40:40.606Z,1.5
2023-04-14T12:42:39.762Z,2.1
2023-04-14T12:44:38.935Z,1.3
2023-04-14T12:48:40.629Z,1.6
2023-04-14T12:50:40.673Z,1.6
2023-04-14T12:52:38.946Z,1.6
2023-04-14T12:53:40.213Z,2
2023-04-14T12:59:37.716Z,2.1
2023-04-14T13:05:38.600Z,1.5
2023-04-14T13:11:36.150Z,1
2023-04-14T13:19:36.337Z,1.7
2023-04-14T13:23:34.824Z,1.1
2023-04-14T13:33:34.381Z,1.6
2023-04-14T13:35:33.684Z,1.6
2023-04-14T13:37:32.897Z,1.7
2023-04-14T13:45:33.312Z,1.2
2023-04-14T13:48:33.909Z,1.7
2023-04-14T13:50:33.227Z,2.2
2023-04-14T13:52:32.533Z,1.8
2023-04-14T14:08:30.758Z,1.8
2023-04-14T14:10:33.674Z,1.8
2023-04-14T14:12:33.087Z,1.2
2023-04-14T14:14:32.436Z,1.9
2023-04-14T14:16:36.543Z,1
2023-04-14T14:18:31.099Z,1.5
2023-04-14T14:20:30.452Z,1.3
2023-04-14T14:22:29.798Z,1.8
2023-04-14T14:24:32.560Z,1.6
2023-04-14T14:26:32.069Z,1.8
2023-04-14T14:28:31.413Z,1.6
2023-04-14T14:30:30.793Z,1.8
2023-04-14T14:32:30.222Z,1.5
2023-04-14T14:36:30.564Z,1.6
2023-04-14T14:38:33.229Z,1.7
2023-04-14T14:42:32.068Z,1.7
2023-04-14T14:44:53.435Z,2.3
2023-04-14T14:46:52.950Z,1.6
2023-04-14T14:50:54.815Z,1.7
2023-04-14T14:52:54.177Z,1.5
2023-04-14T14:56:52.811Z,2
2023-04-14T14:58:52.182Z,2.1
2023-04-14T15:00:51.482Z,2.5
2023-04-14T15:02:51.064Z,2.4
2023-04-14T15:04:53.539Z,1.8
2023-04-14T15:06:52.840Z,2.1
2023-04-14T15:08:52.161Z,2.2
2023-04-14T15:10:51.538Z,1.7
2023-04-14T15:12:50.846Z,1.8
2023-04-14T15:26:49.493Z,2.1
2023-04-14T15:28:48.809Z,1.8
2023-04-14T15:30:48.260Z,2.1
2023-04-14T15:32:51.026Z,1.8
2023-04-14T15:34:50.352Z,2.8
2023-04-14T15:36:49.713Z,2.3
2023-04-14T15:37:51.143Z,2
2023-04-14T15:39:51.138Z,1.9
2023-04-14T15:47:51.778Z,1.6
2023-04-14T15:49:52.819Z,2.4
2023-04-14T15:51:50.649Z,1.6
2023-04-14T16:01:50.405Z,2
2023-04-14T16:03:59.006Z,1.6
2023-04-14T16:05:49.126Z,1.5
2023-04-14T16:11:47.088Z,1.4
2023-04-14T16:13:49.743Z,2.7
2023-04-14T16:23:46.681Z,1.6
2023-04-14T16:25:46.069Z,2.1
2023-04-14T16:27:48.884Z,1.5
2023-04-14T16:32:49.364Z,1.6
2023-04-14T16:36:48.383Z,1.6
2023-04-14T16:38:47.831Z,1.5
2023-04-14T16:40:50.740Z,1.9
2023-04-14T16:42:50.281Z,3.4
2023-04-14T16:44:49.874Z,1.5
2023-04-14T16:46:49.486Z,1.8
2023-04-14T16:48:48.950Z,1.5
2023-04-14T16:50:48.526Z,2.1
2023-04-14T16:52:48.046Z,1
2023-04-14T16:54:51.018Z,1.7
2023-04-14T16:56:50.565Z,1.8
2023-04-14T17:02:49.429Z,1.8
2023-04-14T17:04:48.982Z,1.3
2023-04-14T17:06:48.406Z,1.2
2023-04-14T17:08:51.378Z,1.5
2023-04-14T17:10:50.982Z,1.8
2023-04-14T17:12:50.556Z,2.7
2023-04-14T17:14:50.124Z,2
2023-04-14T17:16:49.778Z,1.9
2023-04-14T17:18:49.354Z,1.7
2023-04-14T17:20:48.915Z,2.4
2023-04-14T17:22:53.400Z,1.9
2023-04-14T17:26:51.131Z,1.7
2023-04-14T17:27:52.840Z,2
2023-04-14T17:39:53.844Z,2
2023-04-14T17:41:53.475Z,2
2023-04-14T17:43:53.069Z,2
2023-04-14T17:49:55.400Z,2.2
2023-04-14T17:51:55.016Z,2.1
2023-04-14T17:55:54.300Z,3
2023-04-14T17:59:53.578Z,2
2023-04-14T18:01:53.238Z,2.8
2023-04-14T18:03:56.280Z,2
2023-04-14T18:05:55.906Z,3
2023-04-14T18:07:55.552Z,2
2023-04-14T18:09:55.244Z,2.1
2023-04-14T18:11:54.863Z,1.7
2023-04-14T18:15:54.173Z,3
2023-04-14T18:17:57.276Z,2.2
2023-04-14T18:28:21.280Z,2
2023-04-14T18:30:24.354Z,2.5
2023-04-14T18:32:24.078Z,2.4
2023-04-14T18:34:23.749Z,2.1
2023-04-14T18:42:22.481Z,2.3
2023-04-14T18:44:25.582Z,2
2023-04-14T18:46:25.326Z,2.3
2023-04-14T18:48:25.022Z,2.1
2023-04-14T18:52:24.404Z,2.1
2023-04-14T18:54:24.127Z,2
2023-04-14T18:56:23.833Z,1.8
2023-04-14T18:58:26.955Z,2.3
2023-04-14T19:00:26.659Z,2.4
2023-04-14T19:04:26.146Z,2.3
2023-04-14T19:06:25.770Z,2.5
2023-04-14T19:08:25.469Z,2.5
2023-04-14T19:10:25.391Z,2.2
2023-04-14T19:12:28.911Z,2.9
2023-04-14T19:14:28.002Z,2.5
2023-04-14T19:16:27.712Z,3
2023-04-14T19:17:29.283Z,3.2
2023-04-14T19:31:30.627Z,3.1
2023-04-14T19:33:30.302Z,3.2
2023-04-14T19:35:30.045Z,4
2023-04-14T19:37:29.792Z,2.9
2023-04-14T19:39:32.868Z,3.2
2023-04-14T19:41:32.626Z,2.7
2023-04-14T19:43:32.324Z,2.8
2023-04-14T19:45:32.099Z,3.1
2023-04-14T19:49:31.532Z,2.9
2023-04-14T19:51:31.260Z,2.5
2023-04-14T19:53:34.351Z,2.6
2023-04-14T19:55:34.125Z,3.3
2023-04-14T19:57:33.865Z,2.8
2023-04-14T19:59:33.597Z,3.1
2023-04-14T20:01:33.351Z,3.3
2023-04-14T20:03:34.465Z,2.8
2023-04-14T20:05:32.804Z,2.9
2023-04-14T20:07:35.970Z,4.3
2023-04-14T20:09:35.751Z,3.9
2023-04-14T20:12:37.042Z,3.1
2023-04-14T20:14:36.795Z,2.8
2023-04-14T20:16:36.613Z,3.4
2023-04-14T20:18:37.872Z,3.5
2023-04-14T20:20:40.981Z,3.5
2023-04-14T20:22:40.746Z,3.9
2023-04-14T20:24:40.508Z,3.8
2023-04-14T20:26:40.231Z,3.8
2023-04-14T20:30:39.817Z,3.9
2023-04-14T20:32:39.598Z,3.6
2023-04-14T20:50:44.602Z,4.2
2023-04-14T20:52:44.322Z,4.4
2023-04-14T20:54:44.105Z,4.3
2023-04-14T20:56:43.949Z,3.9
2023-04-14T20:58:43.744Z,4.5
2023-04-14T21:02:46.954Z,5.2
2023-04-14T21:06:46.308Z,4.8
2023-04-14T21:21:50.201Z,5.7
2023-04-14T21:23:50.098Z,4.6
2023-04-14T21:25:49.918Z,5.3
2023-04-14T21:39:52.409Z,5.2
2023-04-14T21:41:52.171Z,4.6
2023-04-14T21:43:55.585Z,5.7
2023-04-14T21:45:55.495Z,5.4
2023-04-14T21:47:55.380Z,4.9
2023-04-14T21:49:55.252Z,5.1
2023-04-14T21:56:09.259Z,5.5
2023-04-14T21:59:57.862Z,5.8
2023-04-14T22:01:57.849Z,5.8
2023-04-14T22:04:33.126Z,5.7
2023-04-14T22:06:19.782Z,5.7
2023-04-14T22:08:19.685Z,6
2023-04-14T22:12:22.787Z,5.8
2023-04-14T22:14:22.678Z,7.2
2023-04-14T22:16:22.753Z,6.4
2023-04-14T22:18:22.514Z,6.1
2023-04-14T22:20:22.793Z,5.1
2023-04-14T22:22:22.278Z,5.6
2023-04-14T22:24:25.652Z,6.6
2023-04-14T22:26:25.473Z,6.4
2023-04-14T22:28:25.393Z,5.5
2023-04-14T22:32:25.181Z,5.8
2023-04-14T22:34:24.983Z,6.2
2023-04-14T22:40:28.814Z,6.1
2023-04-14T22:44:27.907Z,6.1
2023-04-14T22:46:27.769Z,6
2023-04-14T22:50:27.818Z,5.4
2023-04-14T22:52:30.934Z,6.5
2023-04-14T22:54:30.857Z,6
2023-04-14T22:56:30.770Z,5.8
2023-04-14T22:57:32.472Z,6.4
2023-04-14T23:01:32.342Z,5.9
2023-04-14T23:03:32.450Z,6
2023-04-14T23:05:35.516Z,7
2023-04-14T23:07:35.405Z,6.1
2023-04-14T23:11:35.282Z,6.9
2023-04-14T23:15:35.167Z,5.7
2023-04-14T23:17:35.109Z,5.7
2023-04-14T23:19:38.337Z,6.5
2023-04-14T23:21:38.286Z,5.8
2023-04-14T23:25:38.110Z,6
2023-04-14T23:27:37.928Z,5.8
2023-04-14T23:29:37.879Z,6.1
2023-04-14T23:31:37.850Z,6.4
2023-04-14T23:33:41.220Z,5.8
2023-04-14T23:45:40.736Z,5.7
2023-04-14T23:52:45.725Z,7.1
2023-04-14T23:54:45.658Z,6.6
